Time,TemperatureF,DewpointF,PressureIn,WindDirection,WindDirectionDegrees,WindSpeedMPH,WindSpeedGustMPH,Humidity,HourlyPrecipIn,Conditions,Clouds,dailyrainin,SoftwareType,DateUTC
2013-07-22 00:00:00,53.0,30.0,-100.00,South,189,18.0,22.0,40,-99.99,,,-99.99,,2013-07-22 06:00:00,
2013-07-22 00:43:00,53.0,30.0,-100.00,South,189,18.0,22.0,40,-99.99,,,-99.99,,2013-07-22 06:43:00,
2013-07-22 00:52:00,53.0,30.0,-100.00,South,189,18.0,22.0,40,-99.99,,,-99.99,,2013-07-22 06:52:00,
2013-07-22 02:00:00,54.0,24.0,-100.00,WSW,256,10.0,17.0,30,-99.99,,,-99.99,,2013-07-22 08:00:00,
2013-07-22 02:43:00,54.0,24.0,-100.00,WSW,256,10.0,17.0,30,-99.99,,,-99.99,,2013-07-22 08:43:00,
2013-07-22 02:52:00,54.0,24.0,-100.00,WSW,256,10.0,17.0,30,-99.99,,,-99.99,,2013-07-22 08:52:00,
2013-07-22 04:00:00,53.0,21.0,-100.00,West,262,10.0,23.0,28,-99.99,,,-99.99,,2013-07-22 10:00:00,
2013-07-22 04:43:00,53.0,21.0,-100.00,West,262,10.0,23.0,28,-99.99,,,-99.99,,2013-07-22 10:43:00,
2013-07-22 04:53:00,53.0,21.0,-100.00,West,262,10.0,23.0,28,-99.99,,,-99.99,,2013-07-22 10:53:00,
2013-07-22 06:00:00,52.0,21.0,-100.00,WSW,253,12.0,19.0,30,-99.99,,,-99.99,,2013-07-22 12:00:00,
2013-07-22 06:43:00,52.0,21.0,-100.00,WSW,253,12.0,19.0,30,-99.99,,,-99.99,,2013-07-22 12:43:00,
2013-07-22 06:53:00,52.0,21.0,-100.00,WSW,253,12.0,19.0,30,-99.99,,,-99.99,,2013-07-22 12:53:00,
2013-07-22 10:00:00,54.0,15.0,-100.00,NNW,346,13.0,26.0,21,-99.99,,,-99.99,,2013-07-22 16:00:00,
2013-07-22 10:43:00,54.0,15.0,-100.00,NNW,346,13.0,26.0,21,-99.99,,,-99.99,,2013-07-22 16:43:00,
2013-07-22 10:52:00,54.0,15.0,-100.00,NNW,346,13.0,26.0,21,-99.99,,,-99.99,,2013-07-22 16:52:00,
2013-07-22 12:00:00,57.0,17.0,-100.00,WNW,290,14.0,30.0,20,-99.99,,,-99.99,,2013-07-22 18:00:00,
2013-07-22 12:59:00,57.0,17.0,-100.00,WNW,290,14.0,30.0,20,-99.99,,,-99.99,,2013-07-22 18:59:00,
2013-07-22 13:00:00,57.0,17.0,-100.00,WNW,297,17.0,31.0,20,-99.99,,,-99.99,,2013-07-22 19:00:00,
2013-07-22 13:46:00,57.0,17.0,-100.00,WNW,297,17.0,31.0,20,-99.99,,,-99.99,,2013-07-22 19:46:00,
2013-07-22 13:55:00,57.0,17.0,-100.00,WNW,297,17.0,31.0,20,-99.99,,,-99.99,,2013-07-22 19:55:00,
2013-07-22 15:00:00,59.0,17.0,-100.00,NW,320,13.0,29.0,18,-99.99,,,-99.99,,2013-07-22 21:00:00,
2013-07-22 15:43:00,59.0,17.0,-100.00,NW,320,13.0,29.0,18,-99.99,,,-99.99,,2013-07-22 21:43:00,
2013-07-22 15:53:00,59.0,17.0,-100.00,NW,320,13.0,29.0,18,-99.99,,,-99.99,,2013-07-22 21:53:00,
2013-07-22 17:00:00,61.0,15.0,-100.00,NW,305,11.0,24.0,16,-99.99,,,-99.99,,2013-07-22 23:00:00,
2013-07-22 17:43:00,61.0,15.0,-100.00,NW,305,11.0,24.0,16,-99.99,,,-99.99,,2013-07-22 23:43:00,
2013-07-22 17:52:00,61.0,15.0,-100.00,NW,305,11.0,24.0,16,-99.99,,,-99.99,,2013-07-22 23:52:00,
2013-07-22 19:00:00,61.0,11.0,-100.00,NNW,332,11.0,19.0,13,-99.99,,,-99.99,,2013-07-23 01:00:00,
2013-07-22 19:43:00,61.0,11.0,-100.00,NNW,332,11.0,19.0,13,-99.99,,,-99.99,,2013-07-23 01:43:00,
2013-07-22 19:53:00,61.0,11.0,-100.00,NNW,332,11.0,19.0,13,-99.99,,,-99.99,,2013-07-23 01:53:00,
2013-07-22 22:43:00,57.0,11.0,-100.00,WNW,289,6.0,10.0,15,-99.99,,,-99.99,,2013-07-23 04:43:00,
2013-07-22 23:00:00,57.0,10.0,-100.00,West,259,8.0,17.0,15,-99.99,,,-99.99,,2013-07-23 05:00:00,
2013-07-22 23:44:00,57.0,10.0,-100.00,West,259,8.0,17.0,15,-99.99,,,-99.99,,2013-07-23 05:44:00,
2013-07-22 23:52:00,57.0,10.0,-100.00,West,259,8.0,17.0,15,-99.99,,,-99.99,,2013-07-23 05:52:00,